Time,TemperatureF,DewpointF,PressureIn,WindDirection,WindDirectionDegrees,WindSpeedMPH,WindSpeedGustMPH,Humidity,HourlyPrecipIn,Conditions,Clouds,dailyrainin,SoftwareType,DateUTC
2013-11-01 00:01:00,63.8,60.2,29.52,WNW,282,31.0,31.0,88,0.54,RA,,0.63,WeatherDisplay:10.37,2013-11-01 04:01:00,
2013-11-01 00:02:00,63.7,60.1,29.53,SW,227,26.0,26.0,88,0.58, +RA,,0.06,WeatherDisplay:10.37,2013-11-01 04:02:00,
2013-11-01 00:03:00,63.6,60.0,29.52,SW,233,25.3,25.3,88,0.03, +RA,,0.10,WeatherDisplay:10.37,2013-11-01 04:03:00,
2013-11-01 00:07:00,63.2,59.9,29.52,SW,231,21.0,21.0,89,0.13, +RA,,0.19,WeatherDisplay:10.37,2013-11-01 04:07:00,
2013-11-01 00:12:00,63.1,59.8,29.51,SW,216,31.1,31.1,89,0.20, +RA,,0.26,WeatherDisplay:10.37,2013-11-01 04:12:00,
2013-11-01 00:17:00,63.0,59.7,29.51,West,267,33.0,33.0,89,0.25, +RA,,0.31,WeatherDisplay:10.37,2013-11-01 04:17:00,
2013-11-01 00:22:00,63.0,60.0,29.52,WSW,241,26.0,26.0,90,0.27, +RA,,0.32,WeatherDisplay:10.37,2013-11-01 04:22:00,
2013-11-01 00:27:00,63.3,60.0,29.51,WSW,238,17.3,17.3,89,0.29, +RA,,0.34,WeatherDisplay:10.37,2013-11-01 04:27:00,
2013-11-01 00:32:00,63.4,60.1,29.51,West,266,15.0,15.0,89,0.31, +RA,,0.36,WeatherDisplay:10.37,2013-11-01 04:32:00,
2013-11-01 00:37:00,63.5,60.2,29.52,WSW,255,20.0,20.0,89,0.32, +RA,,0.38,WeatherDisplay:10.37,2013-11-01 04:37:00,
2013-11-01 00:42:00,63.6,60.3,29.53,SW,225,18.4,18.4,89,0.32, +RA,,0.40,WeatherDisplay:10.37,2013-11-01 04:42:00,
2013-11-01 00:47:00,63.6,60.3,29.53,West,276,14.0,14.0,89,0.19, +RA,,0.40,WeatherDisplay:10.37,2013-11-01 04:47:00,
2013-11-01 00:52:00,63.6,60.3,29.56,NNE,30,20.0,20.0,89,0.58, +RA,,0.40,WeatherDisplay:10.37,2013-11-01 04:52:00,
2013-11-01 00:57:00,59.6,54.8,29.56,West,268,11.0,11.0,84,0.53, +RA,,0.43,WeatherDisplay:10.37,2013-11-01 04:57:00,
2013-11-01 01:02:00,57.3,52.8,29.56,SW,234,12.0,12.0,85,1.14,-RA,,1.34,WeatherDisplay:10.37,2013-11-01 05:02:00,
2013-11-01 01:07:00,56.4,52.3,29.57,WSW,255,10.4,10.4,86,2.04,-RA,,2.22,WeatherDisplay:10.37,2013-11-01 05:07:00,
2013-11-01 01:12:00,55.9,52.1,29.57,WSW,255,9.0,9.0,87,2.92,-RA,,3.23,WeatherDisplay:10.37,2013-11-01 05:12:00,
2013-11-01 01:17:00,55.7,51.9,29.57,WNW,296,5.0,5.0,87,3.04,-RA,,3.35,WeatherDisplay:10.37,2013-11-01 05:17:00,
2013-11-01 01:22:00,55.6,52.1,29.58,WSW,251,6.0,6.0,88,3.13,-RA,,3.45,WeatherDisplay:10.37,2013-11-01 05:22:00,
2013-11-01 01:27:00,55.6,52.1,29.58,WSW,253,6.0,6.0,88,3.21,-RA,,3.55,WeatherDisplay:10.37,2013-11-01 05:27:00,
2013-11-01 01:32:00,55.6,52.1,29.58,WSW,249,7.0,7.0,88,3.31,-RA,,3.69,WeatherDisplay:10.37,2013-11-01 05:32:00,
2013-11-01 01:38:00,55.7,52.2,29.57,WSW,257,6.0,6.0,88,3.43,-RA,,3.81,WeatherDisplay:10.37,2013-11-01 05:38:00,
2013-11-01 01:43:00,55.7,52.2,29.57,WSW,258,8.0,8.0,88,3.53,-RA,,3.93,WeatherDisplay:10.37,2013-11-01 05:43:00,
2013-11-01 01:45:00,55.7,52.2,29.57,West,259,4.0,4.0,88,3.57,-RA,,3.99,WeatherDisplay:10.37,2013-11-01 05:45:00,
2013-11-01 01:50:00,55.8,52.3,29.57,WSW,258,5.0,5.0,88,3.69,-RA,,4.11,WeatherDisplay:10.37,2013-11-01 05:50:00,
2013-11-01 01:55:00,55.9,52.4,29.57,West,268,6.9,6.9,88,3.81,-RA,,4.23,WeatherDisplay:10.37,2013-11-01 05:55:00,
2013-11-01 02:00:00,56.1,52.6,29.57,WSW,247,4.0,4.0,88,3.75,-RA,,4.33,WeatherDisplay:10.37,2013-11-01 06:00:00,
2013-11-01 02:05:00,56.0,52.5,29.58,WSW,239,4.0,4.0,88,2.71,RA,,4.45,WeatherDisplay:10.37,2013-11-01 06:05:00,
2013-11-01 02:10:00,56.0,52.5,29.58,WSW,239,4.0,4.0,88,2.05,RA,,4.57,WeatherDisplay:10.37,2013-11-01 06:10:00,
2013-11-01 02:15:00,56.0,52.5,29.57,SW,234,7.0,7.0,88,1.40,RA,,4.69,WeatherDisplay:10.37,2013-11-01 06:15:00,
2013-11-01 02:20:00,56.0,52.2,29.57,SW,234,4.6,4.6,87,1.40,RA,,4.81,WeatherDisplay:10.37,2013-11-01 06:20:00,
2013-11-01 02:25:00,56.0,52.2,29.58,WSW,239,8.0,8.0,87,1.37,RA,,4.90,WeatherDisplay:10.37,2013-11-01 06:25:00,
2013-11-01 02:30:00,56.1,52.3,29.58,WSW,241,9.2,9.2,87,1.34,RA,,4.97,WeatherDisplay:10.37,2013-11-01 06:30:00,
2013-11-01 02:35:00,56.1,52.3,29.58,SW,233,6.0,6.0,87,1.31,RA,,5.05,WeatherDisplay:10.37,2013-11-01 06:35:00,
2013-11-01 02:40:00,56.1,52.3,29.59,WSW,237,8.0,8.0,87,1.25,RA,,5.11,WeatherDisplay:10.37,2013-11-01 06:40:00,
2013-11-01 02:45:00,56.2,52.4,29.59,WSW,255,8.1,8.1,87,1.19,RA,,5.17,WeatherDisplay:10.37,2013-11-01 06:45:00,
2013-11-01 02:50:00,56.2,52.1,29.60,WSW,241,7.0,7.0,86,1.12,RA,,5.23,WeatherDisplay:10.37,2013-11-01 06:50:00,
2013-11-01 02:55:00,56.3,52.2,29.61,SW,233,6.0,6.0,86,1.07,RA,,5.28,WeatherDisplay:10.37,2013-11-01 06:55:00,
2013-11-01 03:00:00,56.4,52.3,29.61,WSW,239,14.0,14.0,86,1.01,RA,,5.34,WeatherDisplay:10.37,2013-11-01 07:00:00,
2013-11-01 03:05:00,56.6,52.5,29.60,WSW,257,10.4,10.4,86,0.95,RA,,5.41,WeatherDisplay:10.37,2013-11-01 07:05:00,
2013-11-01 03:10:00,56.7,52.2,29.60,WSW,252,11.0,11.0,85,0.90,RA,,5.46,WeatherDisplay:10.37,2013-11-01 07:10:00,
2013-11-01 03:15:00,56.8,52.3,29.59,WNW,288,7.0,7.0,85,0.84,RA,,5.52,WeatherDisplay:10.37,2013-11-01 07:15:00,
2013-11-01 03:20:00,56.8,52.3,29.60,WSW,253,10.4,10.4,85,0.78,RA,,5.58,WeatherDisplay:10.37,2013-11-01 07:20:00,
2013-11-01 03:25:00,56.9,52.4,29.60,WNW,295,9.2,9.2,85,0.75,RA,,5.63,WeatherDisplay:10.37,2013-11-01 07:25:00,
2013-11-01 03:30:00,56.8,52.3,29.60,West,259,13.0,13.0,85,0.72,RA,,5.70,WeatherDisplay:10.37,2013-11-01 07:30:00,
2013-11-01 03:35:00,56.9,52.1,29.61,WSW,247,8.0,8.0,84,0.71,RA,,5.75,WeatherDisplay:10.37,2013-11-01 07:35:00,
2013-11-01 03:40:00,56.9,52.1,29.61,West,272,13.0,13.0,84,0.71,RA,,5.82,WeatherDisplay:10.37,2013-11-01 07:40:00,
2013-11-01 03:45:00,57.0,52.2,29.61,WNW,293,8.1,8.1,84,0.70,RA,,5.87,WeatherDisplay:10.37,2013-11-01 07:45:00,
2013-11-01 03:50:00,57.0,52.2,29.62,WSW,244,13.0,13.0,84,0.70,RA,,5.93,WeatherDisplay:10.37,2013-11-01 07:50:00,
2013-11-01 03:55:00,57.0,52.2,29.62,West,270,12.0,12.0,84,0.70,RA,,5.98,WeatherDisplay:10.37,2013-11-01 07:55:00,
2013-11-01 04:00:00,57.0,52.2,29.62,West,260,14.0,14.0,84,0.70,RA,,6.05,WeatherDisplay:10.37,2013-11-01 08:00:00,
2013-11-01 04:05:00,57.0,52.2,29.62,WSW,254,13.0,13.0,84,0.70,RA,,6.11,WeatherDisplay:10.37,2013-11-01 08:05:00,
2013-11-01 04:10:00,57.0,51.9,29.63,NW,321,7.0,7.0,83,0.70,RA,,6.17,WeatherDisplay:10.37,2013-11-01 08:10:00,
2013-11-01 04:15:00,57.0,51.9,29.63,West,263,19.6,19.6,83,0.71,RA,,6.22,WeatherDisplay:10.37,2013-11-01 08:15:00,
2013-11-01 04:20:00,57.1,52.0,29.64,West,264,10.4,10.4,83,0.70,RA,,6.28,WeatherDisplay:10.37,2013-11-01 08:20:00,
2013-11-01 04:25:00,57.0,51.9,29.64,West,263,17.3,17.3,83,0.70,RA,,6.35,WeatherDisplay:10.37,2013-11-01 08:25:00,
2013-11-01 04:30:00,56.9,51.8,29.64,West,271,7.0,7.0,83,0.70,RA,,6.40,WeatherDisplay:10.37,2013-11-01 08:30:00,
2013-11-01 04:35:00,56.8,51.7,29.65,WSW,247,8.0,8.0,83,0.70,RA,,6.46,WeatherDisplay:10.37,2013-11-01 08:35:00,
2013-11-01 04:40:00,56.5,51.1,29.65,West,272,9.2,9.2,82,0.70,RA,,6.51,WeatherDisplay:10.37,2013-11-01 08:40:00,
2013-11-01 04:45:00,56.3,51.2,29.65,WSW,255,9.2,9.2,83,0.70,RA,,6.58,WeatherDisplay:10.37,2013-11-01 08:45:00,
2013-11-01 04:50:00,56.0,50.9,29.65,WSW,239,10.4,10.4,83,0.71,RA,,6.64,WeatherDisplay:10.37,2013-11-01 08:50:00,
2013-11-01 04:55:00,55.8,50.7,29.66,West,261,8.0,8.0,83,0.71,RA,,6.70,WeatherDisplay:10.37,2013-11-01 08:55:00,
2013-11-01 05:00:00,55.6,50.5,29.66,West,266,5.0,5.0,83,0.70,RA,,6.75,WeatherDisplay:10.37,2013-11-01 09:00:00,
2013-11-01 05:05:00,55.5,50.4,29.66,WSW,255,7.0,7.0,83,0.70,RA,,6.81,WeatherDisplay:10.37,2013-11-01 09:05:00,
2013-11-01 05:10:00,55.3,50.2,29.66,West,273,5.0,5.0,83,0.70,RA,,6.87,WeatherDisplay:10.37,2013-11-01 09:10:00,
2013-11-01 05:15:00,55.1,50.0,29.67,West,261,9.2,9.2,83,0.70,RA,,6.93,WeatherDisplay:10.37,2013-11-01 09:15:00,
2013-11-01 05:20:00,55.1,50.0,29.67,West,280,5.0,5.0,83,0.70,RA,,6.98,WeatherDisplay:10.37,2013-11-01 09:20:00,
2013-11-01 05:25:00,55.2,50.1,29.67,WNW,301,4.0,4.0,83,0.70,RA,,7.04,WeatherDisplay:10.37,2013-11-01 09:25:00,
2013-11-01 05:30:00,55.3,50.5,29.68,West,268,3.5,3.5,84,0.70,RA,,7.09,WeatherDisplay:10.37,2013-11-01 09:30:00,
2013-11-01 05:35:00,55.2,50.4,29.68,West,267,5.0,5.0,84,0.70,RA,,7.16,WeatherDisplay:10.37,2013-11-01 09:35:00,
2013-11-01 05:40:00,55.1,50.7,29.68,West,271,5.0,5.0,85,0.69,RA,,7.20,WeatherDisplay:10.37,2013-11-01 09:40:00,
2013-11-01 05:45:00,54.9,50.5,29.68,West,266,4.0,4.0,85,0.62,RA,,7.20,WeatherDisplay:10.37,2013-11-01 09:45:00,
2013-11-01 05:50:00,54.7,50.0,29.68,WSW,252,4.6,4.6,84,0.57,FEW,,7.20,WeatherDisplay:10.37,2013-11-01 09:50:00,
2013-11-01 05:55:00,54.5,49.8,29.69,WSW,244,2.0,0.0,84,0.52,FEW,,7.20,WeatherDisplay:10.37,2013-11-01 09:55:00,
2013-11-01 06:00:00,54.3,49.6,29.69,West,268,3.5,3.5,84,0.46,FEW,,7.20,WeatherDisplay:10.37,2013-11-01 10:00:00,
2013-11-01 06:05:00,54.1,49.4,29.69,West,270,3.5,3.5,84,0.40,SCT,,7.20,WeatherDisplay:10.37,2013-11-01 10:05:00,
2013-11-01 06:10:00,53.7,48.7,29.69,WNW,288,5.0,5.0,83,0.34,SCT,,7.20,WeatherDisplay:10.37,2013-11-01 10:10:00,
2013-11-01 06:15:00,53.5,48.5,29.70,West,268,9.2,9.2,83,0.28,SCT,,7.20,WeatherDisplay:10.37,2013-11-01 10:15:00,
2013-11-01 06:20:00,53.3,48.3,29.70,WSW,251,3.5,3.5,83,0.23,SCT,,7.20,WeatherDisplay:10.37,2013-11-01 10:20:00,
2013-11-01 06:25:00,53.1,48.1,29.70,West,268,6.9,6.9,83,0.17,SCT,,7.20,WeatherDisplay:10.37,2013-11-01 10:25:00,
2013-11-01 06:30:00,52.9,47.9,29.70,West,263,8.1,8.1,83,0.11,SCT,,7.20,WeatherDisplay:10.37,2013-11-01 10:30:00,
2013-11-01 06:35:00,52.7,47.7,29.70,WNW,298,4.0,4.0,83,0.04,SCT,,7.20,WeatherDisplay:10.37,2013-11-01 10:35:00,
2013-11-01 06:41:00,52.5,47.5,29.71,WNW,291,3.5,3.5,83,0.00,SCT,,7.20,WeatherDisplay:10.37,2013-11-01 10:41:00,
2013-11-01 06:46:00,52.3,47.3,29.71,WNW,283,5.0,5.0,83,0.00,SCT,,7.20,WeatherDisplay:10.37,2013-11-01 10:46:00,
2013-11-01 06:51:00,52.1,47.1,29.71,WNW,283,2.3,2.3,83,0.00,SCT,,7.20,WeatherDisplay:10.37,2013-11-01 10:51:00,
2013-11-01 06:56:00,51.9,47.2,29.72,WNW,291,2.0,2.0,84,0.00,SCT,,7.20,WeatherDisplay:10.37,2013-11-01 10:56:00,
2013-11-01 07:01:00,51.8,47.1,29.72,WNW,286,1.2,1.2,84,0.00,SCT,,7.20,WeatherDisplay:10.37,2013-11-01 11:01:00,
2013-11-01 07:06:00,51.6,46.9,29.72,WNW,286,1.0,1.0,84,0.00,CLR,,7.20,WeatherDisplay:10.37,2013-11-01 11:06:00,
2013-11-01 07:11:00,51.5,46.8,29.72,WNW,286,2.3,2.3,84,0.00,CLR,,7.20,WeatherDisplay:10.37,2013-11-01 11:11:00,
2013-11-01 07:16:00,51.3,46.9,29.72,WNW,286,2.0,2.0,85,0.00,CLR,,7.20,WeatherDisplay:10.37,2013-11-01 11:16:00,
2013-11-01 07:21:00,51.2,46.8,29.73,WNW,286,2.3,2.3,85,0.00,CLR,,7.20,WeatherDisplay:10.37,2013-11-01 11:21:00,
2013-11-01 07:26:00,51.0,46.6,29.73,WNW,286,2.3,2.3,85,0.00,CLR,,7.20,WeatherDisplay:10.37,2013-11-01 11:26:00,
2013-11-01 07:31:00,51.0,46.6,29.73,WNW,286,0.0,0.0,85,0.00,CLR,,7.20,WeatherDisplay:10.37,2013-11-01 11:31:00,
2013-11-01 07:36:00,51.0,47.0,29.73,WNW,286,5.0,5.0,86,0.00,CLR,,7.20,WeatherDisplay:10.37,2013-11-01 11:36:00,
2013-11-01 07:41:00,51.0,47.0,29.74,WNW,284,5.0,5.0,86,0.00,CLR,,7.20,WeatherDisplay:10.37,2013-11-01 11:41:00,
2013-11-01 07:46:00,50.9,46.9,29.74,WNW,284,3.5,3.5,86,0.00,CLR,,7.20,WeatherDisplay:10.37,2013-11-01 11:46:00,
2013-11-01 07:51:00,50.9,46.9,29.74,WNW,283,2.3,0.0,86,0.00,CLR,,7.20,WeatherDisplay:10.37,2013-11-01 11:51:00,
2013-11-01 07:56:00,50.7,46.7,29.74,WNW,284,2.3,2.3,86,0.00,CLR,,7.20,WeatherDisplay:10.37,2013-11-01 11:56:00,
2013-11-01 08:08:00,50.8,47.1,29.74,West,276,4.0,0.0,87,0.00,RA,,7.20,WeatherDisplay:10.37,2013-11-01 12:08:00,
2013-11-01 08:13:00,50.9,47.2,29.75,WSW,249,1.2,1.2,87,0.00,RA,,7.20,WeatherDisplay:10.37,2013-11-01 12:13:00,
2013-11-01 08:18:00,51.0,47.3,29.75,WSW,251,6.0,6.0,87,0.00,RA,,7.20,WeatherDisplay:10.37,2013-11-01 12:18:00,
2013-11-01 08:23:00,51.1,47.4,29.75,WSW,249,6.0,6.0,87,0.00,CLR,,7.20,WeatherDisplay:10.37,2013-11-01 12:23:00,
2013-11-01 08:28:00,51.0,47.3,29.75,WSW,248,5.0,5.0,87,0.00,CLR,,7.20,WeatherDisplay:10.37,2013-11-01 12:28:00,
2013-11-01 08:33:00,50.9,46.9,29.75,WSW,253,5.0,5.0,86,0.00,CLR,,7.20,WeatherDisplay:10.37,2013-11-01 12:33:00,
2013-11-01 08:39:00,50.9,46.9,29.75,WSW,253,4.0,4.0,86,0.00,CLR,,7.20,WeatherDisplay:10.37,2013-11-01 12:39:00,
2013-11-01 08:44:00,50.8,46.8,29.75,SW,232,7.0,7.0,86,0.00,CLR,,7.20,WeatherDisplay:10.37,2013-11-01 12:44:00,
2013-11-01 08:49:00,50.9,46.9,29.75,SW,229,5.0,5.0,86,0.00,CLR,,7.20,WeatherDisplay:10.37,2013-11-01 12:49:00,
2013-11-01 08:54:00,50.9,46.9,29.75,SW,229,1.2,1.2,86,0.00,CLR,,7.20,WeatherDisplay:10.37,2013-11-01 12:54:00,
2013-11-01 08:59:00,51.0,46.6,29.75,SW,230,5.0,5.0,85,0.00,CLR,,7.20,WeatherDisplay:10.37,2013-11-01 12:59:00,
2013-11-01 09:04:00,51.1,46.7,29.75,SW,230,3.5,3.5,85,0.00,FEW,,7.20,WeatherDisplay:10.37,2013-11-01 13:04:00,
2013-11-01 09:09:00,51.3,46.9,29.75,SW,230,5.0,5.0,85,0.00,FEW,,7.20,WeatherDisplay:10.37,2013-11-01 13:09:00,
2013-11-01 09:14:00,51.5,47.1,29.76,WSW,258,6.9,6.9,85,0.00,FEW,,7.20,WeatherDisplay:10.37,2013-11-01 13:14:00,
2013-11-01 09:19:00,51.7,47.0,29.76,WSW,244,8.1,8.1,84,0.00,FEW,,7.20,WeatherDisplay:10.37,2013-11-01 13:19:00,
2013-11-01 09:24:00,52.0,47.0,29.76,WSW,243,6.0,6.0,83,0.00,FEW,,7.20,WeatherDisplay:10.37,2013-11-01 13:24:00,
2013-11-01 09:29:00,52.2,47.2,29.76,WSW,240,6.0,6.0,83,0.00,FEW,,7.20,WeatherDisplay:10.37,2013-11-01 13:29:00,
2013-11-01 09:34:00,52.3,47.3,29.76,WSW,240,3.5,3.5,83,0.00,FEW,,7.20,WeatherDisplay:10.37,2013-11-01 13:34:00,
2013-11-01 09:39:00,52.5,47.5,29.77,WSW,242,6.0,6.0,83,0.00,FEW,,7.20,WeatherDisplay:10.37,2013-11-01 13:39:00,
2013-11-01 09:44:00,52.6,47.6,29.77,WSW,243,7.0,7.0,83,0.00,FEW,,7.20,WeatherDisplay:10.37,2013-11-01 13:44:00,
2013-11-01 09:49:00,52.9,47.9,29.77,WSW,238,5.0,5.0,83,0.00,FEW,,7.20,WeatherDisplay:10.37,2013-11-01 13:49:00,
2013-11-01 09:54:00,53.1,48.1,29.77,WSW,247,4.6,4.6,83,0.00,FEW,,7.20,WeatherDisplay:10.37,2013-11-01 13:54:00,
2013-11-01 09:59:00,53.3,48.3,29.77,West,272,6.0,6.0,83,0.00,FEW,,7.20,WeatherDisplay:10.37,2013-11-01 13:59:00,
2013-11-01 10:04:00,53.4,48.0,29.77,WSW,245,8.0,8.0,82,0.00,CLR,,7.20,WeatherDisplay:10.37,2013-11-01 14:04:00,
2013-11-01 10:09:00,53.7,48.3,29.78,WSW,240,7.0,7.0,82,0.00,CLR,,7.20,WeatherDisplay:10.37,2013-11-01 14:09:00,
2013-11-01 10:14:00,53.8,48.1,29.78,WSW,249,10.4,10.4,81,0.00,CLR,,7.20,WeatherDisplay:10.37,2013-11-01 14:14:00,
2013-11-01 10:19:00,54.1,48.1,29.78,West,278,12.7,12.7,80,0.00,CLR,,7.20,WeatherDisplay:10.37,2013-11-01 14:19:00,
2013-11-01 10:24:00,54.3,48.3,29.77,WSW,239,12.0,12.0,80,0.00,CLR,,7.20,WeatherDisplay:10.37,2013-11-01 14:24:00,
2013-11-01 10:29:00,54.3,47.9,29.78,WSW,252,12.0,12.0,79,0.00,CLR,,7.20,WeatherDisplay:10.37,2013-11-01 14:29:00,
2013-11-01 10:34:00,54.4,47.7,29.77,WSW,240,12.0,12.0,78,0.00,CLR,,7.20,WeatherDisplay:10.37,2013-11-01 14:34:00,
2013-11-01 10:39:00,54.7,48.3,29.78,WNW,300,6.0,6.0,79,0.00,CLR,,7.20,WeatherDisplay:10.37,2013-11-01 14:39:00,
2013-11-01 10:44:00,54.9,48.2,29.77,WSW,257,8.1,8.1,78,0.00,CLR,,7.20,WeatherDisplay:10.37,2013-11-01 14:44:00,
2013-11-01 10:49:00,55.3,48.6,29.78,SW,234,3.5,3.5,78,0.00,CLR,,7.20,WeatherDisplay:10.37,2013-11-01 14:49:00,
2013-11-01 10:54:00,55.6,48.5,29.77,WSW,241,9.2,9.2,77,0.00,CLR,,7.20,WeatherDisplay:10.37,2013-11-01 14:54:00,
2013-11-01 10:59:00,55.8,48.3,29.77,WSW,257,11.5,11.5,76,0.00,CLR,,7.20,WeatherDisplay:10.37,2013-11-01 14:59:00,
2013-11-01 11:04:00,56.0,48.2,29.77,WSW,255,7.0,7.0,75,0.00,SCT,,7.20,WeatherDisplay:10.37,2013-11-01 15:04:00,
2013-11-01 11:09:00,56.4,48.6,29.77,WSW,248,11.0,11.0,75,0.00,SCT,,7.20,WeatherDisplay:10.37,2013-11-01 15:09:00,
2013-11-01 11:14:00,56.4,48.2,29.77,SW,234,10.0,10.0,74,0.00,SCT,,7.20,WeatherDisplay:10.37,2013-11-01 15:14:00,
2013-11-01 11:19:00,56.8,48.6,29.77,WSW,241,4.6,4.6,74,0.00,SCT,,7.20,WeatherDisplay:10.37,2013-11-01 15:19:00,
2013-11-01 11:24:00,57.1,48.9,29.77,WSW,256,6.9,6.9,74,0.00,SCT,,7.20,WeatherDisplay:10.37,2013-11-01 15:24:00,
2013-11-01 11:29:00,57.3,48.3,29.77,WSW,237,9.2,9.2,72,0.00,SCT,,7.20,WeatherDisplay:10.37,2013-11-01 15:29:00,
2013-11-01 11:34:00,57.3,48.0,29.77,SW,232,10.4,10.4,71,0.00,SCT,,7.20,WeatherDisplay:10.37,2013-11-01 15:34:00,
2013-11-01 11:39:00,57.3,48.0,29.77,WSW,247,9.2,9.2,71,0.00,SCT,,7.20,WeatherDisplay:10.37,2013-11-01 15:39:00,
2013-11-01 11:44:00,57.7,48.7,29.77,WNW,293,3.5,3.5,72,0.00,SCT,,7.20,WeatherDisplay:10.37,2013-11-01 15:44:00,
2013-11-01 11:49:00,57.8,48.5,29.76,West,264,7.0,7.0,71,0.00,SCT,,7.20,WeatherDisplay:10.37,2013-11-01 15:49:00,
2013-11-01 11:54:00,58.0,48.3,29.76,SW,229,9.2,9.2,70,0.00,SCT,,7.20,WeatherDisplay:10.37,2013-11-01 15:54:00,
2013-11-01 11:59:00,58.2,48.5,29.76,WSW,251,8.1,8.1,70,0.00,SCT,,7.20,WeatherDisplay:10.37,2013-11-01 15:59:00,
2013-11-01 12:04:00,58.3,47.8,29.77,SW,230,9.0,9.0,68,0.00,CLR,,7.20,WeatherDisplay:10.37,2013-11-01 16:04:00,
2013-11-01 12:09:00,58.5,48.4,29.77,SW,231,7.0,7.0,69,0.00,CLR,,7.20,WeatherDisplay:10.37,2013-11-01 16:09:00,
2013-11-01 12:14:00,59.0,48.4,29.76,WSW,239,9.2,9.2,68,0.00,CLR,,7.20,WeatherDisplay:10.37,2013-11-01 16:14:00,
2013-11-01 12:19:00,59.0,47.2,29.76,WSW,244,10.4,10.4,65,0.00,CLR,,7.20,WeatherDisplay:10.37,2013-11-01 16:19:00,
2013-11-01 12:24:00,59.0,46.4,29.76,WSW,243,8.1,8.1,63,0.00,CLR,,7.20,WeatherDisplay:10.37,2013-11-01 16:24:00,
2013-11-01 12:29:00,59.0,46.4,29.76,WSW,249,9.2,9.2,63,0.00,CLR,,7.20,WeatherDisplay:10.37,2013-11-01 16:29:00,
2013-11-01 12:34:00,59.3,46.7,29.76,West,280,9.0,9.0,63,0.00,CLR,,7.20,WeatherDisplay:10.37,2013-11-01 16:34:00,
2013-11-01 12:39:00,59.7,46.7,29.76,West,278,11.5,11.5,62,0.00,CLR,,7.20,WeatherDisplay:10.37,2013-11-01 16:39:00,
2013-11-01 12:44:00,60.0,46.5,29.76,WSW,245,10.4,10.4,61,0.00,CLR,,7.20,WeatherDisplay:10.37,2013-11-01 16:44:00,
2013-11-01 12:49:00,60.2,47.1,29.76,WNW,282,5.8,5.8,62,0.00,CLR,,7.20,WeatherDisplay:10.37,2013-11-01 16:49:00,
2013-11-01 12:54:00,60.6,47.1,29.76,WSW,246,10.4,10.4,61,0.00,CLR,,7.20,WeatherDisplay:10.37,2013-11-01 16:54:00,
2013-11-01 12:59:00,60.5,47.0,29.76,WSW,245,11.5,11.5,61,0.00,CLR,,7.20,WeatherDisplay:10.37,2013-11-01 16:59:00,
2013-11-01 13:04:00,60.5,47.4,29.76,WSW,247,8.1,8.1,62,0.00,FEW,,7.20,WeatherDisplay:10.37,2013-11-01 17:04:00,
2013-11-01 13:09:00,60.5,47.4,29.75,WSW,256,6.9,6.9,62,0.00,FEW,,7.20,WeatherDisplay:10.37,2013-11-01 17:09:00,
2013-11-01 13:14:00,60.7,47.6,29.76,WSW,240,9.0,9.0,62,0.00,FEW,,7.20,WeatherDisplay:10.37,2013-11-01 17:14:00,
2013-11-01 13:19:00,60.7,47.6,29.75,WSW,245,11.0,11.0,62,0.00,FEW,,7.20,WeatherDisplay:10.37,2013-11-01 17:19:00,
2013-11-01 13:24:00,60.6,47.1,29.75,West,278,11.5,11.5,61,0.00,FEW,,7.20,WeatherDisplay:10.37,2013-11-01 17:24:00,
2013-11-01 13:29:00,60.6,47.5,29.75,West,259,12.0,12.0,62,0.00,FEW,,7.20,WeatherDisplay:10.37,2013-11-01 17:29:00,
2013-11-01 13:34:00,60.8,48.1,29.74,West,274,9.2,9.2,63,0.00,FEW,,7.20,WeatherDisplay:10.37,2013-11-01 17:34:00,
2013-11-01 13:39:00,61.6,48.9,29.74,West,259,5.0,5.0,63,0.00,FEW,,7.20,WeatherDisplay:10.37,2013-11-01 17:39:00,
2013-11-01 13:44:00,61.9,47.9,29.74,West,265,13.8,13.8,60,0.00,FEW,,7.20,WeatherDisplay:10.37,2013-11-01 17:44:00,
2013-11-01 13:49:00,61.1,48.0,29.73,WSW,251,6.0,6.0,62,0.00,FEW,,7.20,WeatherDisplay:10.37,2013-11-01 17:49:00,
2013-11-01 13:54:00,61.3,48.2,29.73,West,259,9.2,9.2,62,0.00,FEW,,7.20,WeatherDisplay:10.37,2013-11-01 17:54:00,
2013-11-01 13:59:00,61.8,47.3,29.73,West,261,11.0,11.0,59,0.00,FEW,,7.20,WeatherDisplay:10.37,2013-11-01 17:59:00,
2013-11-01 14:04:00,61.7,47.7,29.73,West,260,10.4,10.4,60,0.00,BKN,,7.20,WeatherDisplay:10.37,2013-11-01 18:04:00,
2013-11-01 14:09:00,61.5,47.5,29.73,WSW,245,6.0,6.0,60,0.00,BKN,,7.20,WeatherDisplay:10.37,2013-11-01 18:09:00,
2013-11-01 14:14:00,61.6,48.0,29.73,West,266,8.0,8.0,61,0.00,BKN,,7.20,WeatherDisplay:10.37,2013-11-01 18:14:00,
2013-11-01 14:19:00,61.4,47.8,29.73,WSW,249,4.0,4.0,61,0.00,BKN,,7.20,WeatherDisplay:10.37,2013-11-01 18:19:00,
2013-11-01 14:24:00,61.6,48.0,29.72,WNW,285,5.0,5.0,61,0.00,BKN,,7.20,WeatherDisplay:10.37,2013-11-01 18:24:00,
2013-11-01 14:29:00,61.7,47.2,29.72,West,270,8.1,8.1,59,0.00,BKN,,7.20,WeatherDisplay:10.37,2013-11-01 18:29:00,
2013-11-01 14:34:00,62.3,47.3,29.72,SW,226,15.0,15.0,58,0.00,BKN,,7.20,WeatherDisplay:10.37,2013-11-01 18:34:00,
2013-11-01 14:39:00,62.5,47.5,29.72,SW,224,10.0,10.0,58,0.00,BKN,,7.20,WeatherDisplay:10.37,2013-11-01 18:39:00,
2013-11-01 14:44:00,62.6,47.1,29.72,WSW,245,6.9,6.9,57,0.00,BKN,,7.20,WeatherDisplay:10.37,2013-11-01 18:44:00,
2013-11-01 14:49:00,63.1,47.1,29.72,NNW,332,11.5,11.5,56,0.00,BKN,,7.20,WeatherDisplay:10.37,2013-11-01 18:49:00,
2013-11-01 14:54:00,63.1,47.1,29.72,WSW,253,5.8,5.8,56,0.00,BKN,,7.20,WeatherDisplay:10.37,2013-11-01 18:54:00,
2013-11-01 14:59:00,62.4,46.5,29.72,WSW,247,5.0,5.0,56,0.00,BKN,,7.20,WeatherDisplay:10.37,2013-11-01 18:59:00,
2013-11-01 15:04:00,62.4,47.0,29.71,WSW,248,3.5,3.5,57,0.00,BKN,,7.20,WeatherDisplay:10.37,2013-11-01 19:04:00,
2013-11-01 15:09:00,63.0,47.1,29.71,SW,230,13.0,13.0,56,0.00,BKN,,7.20,WeatherDisplay:10.37,2013-11-01 19:09:00,
2013-11-01 15:14:00,63.3,46.9,29.71,West,269,12.7,12.7,55,0.00,BKN,,7.20,WeatherDisplay:10.37,2013-11-01 19:14:00,
2013-11-01 15:19:00,64.1,46.6,29.71,SW,231,12.7,12.7,53,0.00,BKN,,7.20,WeatherDisplay:10.37,2013-11-01 19:19:00,
2013-11-01 15:24:00,63.2,46.3,29.71,SW,235,12.0,12.0,54,0.00,BKN,,7.20,WeatherDisplay:10.37,2013-11-01 19:24:00,
2013-11-01 15:29:00,62.8,46.4,29.71,SW,233,7.0,7.0,55,0.00,BKN,,7.20,WeatherDisplay:10.37,2013-11-01 19:29:00,
2013-11-01 15:34:00,62.9,46.0,29.71,WSW,254,10.4,10.4,54,0.00,BKN,,7.20,WeatherDisplay:10.37,2013-11-01 19:34:00,
2013-11-01 15:39:00,63.2,45.8,29.71,SW,230,12.0,12.0,53,0.00,BKN,,7.20,WeatherDisplay:10.37,2013-11-01 19:39:00,
2013-11-01 15:44:00,63.5,45.6,29.71,NW,311,11.5,11.5,52,0.00,BKN,,7.20,WeatherDisplay:10.37,2013-11-01 19:44:00,
2013-11-01 15:49:00,63.1,46.2,29.71,SW,235,9.0,9.0,54,0.00,BKN,,7.20,WeatherDisplay:10.37,2013-11-01 19:49:00,
2013-11-01 15:54:00,63.2,45.8,29.71,WSW,243,8.0,8.0,53,0.00,BKN,,7.20,WeatherDisplay:10.37,2013-11-01 19:54:00,
2013-11-01 15:59:00,63.0,45.6,29.71,WSW,258,9.2,9.2,53,0.00,BKN,,7.20,WeatherDisplay:10.37,2013-11-01 19:59:00,
2013-11-01 16:04:00,62.8,44.9,29.71,West,268,5.8,5.8,52,0.00,BKN,,7.20,WeatherDisplay:10.37,2013-11-01 20:04:00,
2013-11-01 16:09:00,63.2,45.8,29.71,West,261,9.2,9.2,53,0.00,BKN,,7.20,WeatherDisplay:10.37,2013-11-01 20:09:00,
2013-11-01 16:14:00,63.7,45.2,29.71,West,279,13.0,13.0,51,0.00,BKN,,7.20,WeatherDisplay:10.37,2013-11-01 20:14:00,
2013-11-01 16:19:00,63.9,46.4,29.71,WSW,240,12.0,12.0,53,0.00,BKN,,7.20,WeatherDisplay:10.37,2013-11-01 20:19:00,
2013-11-01 16:24:00,63.8,45.3,29.71,WSW,239,10.4,10.4,51,0.00,BKN,,7.20,WeatherDisplay:10.37,2013-11-01 20:24:00,
2013-11-01 16:29:00,64.1,45.6,29.71,WSW,242,9.0,9.0,51,0.00,BKN,,7.20,WeatherDisplay:10.37,2013-11-01 20:29:00,
2013-11-01 16:34:00,64.2,44.6,29.71,WNW,283,10.4,10.4,49,0.00,BKN,,7.20,WeatherDisplay:10.37,2013-11-01 20:34:00,
2013-11-01 16:39:00,63.7,44.7,29.71,SW,232,11.5,11.5,50,0.00,BKN,,7.20,WeatherDisplay:10.37,2013-11-01 20:39:00,
2013-11-01 16:44:00,64.0,45.5,29.71,WSW,251,8.1,8.1,51,0.00,BKN,,7.20,WeatherDisplay:10.37,2013-11-01 20:44:00,
2013-11-01 16:49:00,64.2,45.7,29.71,WSW,253,11.0,11.0,51,0.00,BKN,,7.20,WeatherDisplay:10.37,2013-11-01 20:49:00,
2013-11-01 16:54:00,63.6,45.1,29.70,SW,236,8.0,8.0,51,0.00,BKN,,7.20,WeatherDisplay:10.37,2013-11-01 20:54:00,
2013-11-01 16:59:00,63.6,45.1,29.70,WSW,249,8.1,8.1,51,0.00,BKN,,7.20,WeatherDisplay:10.37,2013-11-01 20:59:00,
2013-11-01 17:04:00,63.6,45.1,29.71,WSW,249,7.0,7.0,51,0.00,BKN,,7.20,WeatherDisplay:10.37,2013-11-01 21:04:00,
2013-11-01 17:09:00,63.1,45.2,29.71,WSW,247,9.2,9.2,52,0.00,BKN,,7.20,WeatherDisplay:10.37,2013-11-01 21:09:00,
2013-11-01 17:14:00,62.7,44.8,29.71,WSW,241,11.5,11.5,52,0.00,BKN,,7.20,WeatherDisplay:10.37,2013-11-01 21:14:00,
2013-11-01 17:19:00,62.5,44.6,29.71,West,261,11.5,11.5,52,0.00,BKN,,7.20,WeatherDisplay:10.37,2013-11-01 21:19:00,
2013-11-01 17:24:00,62.5,44.6,29.71,WSW,248,9.2,9.2,52,0.00,BKN,,7.20,WeatherDisplay:10.37,2013-11-01 21:24:00,
2013-11-01 17:29:00,62.5,45.1,29.71,WSW,249,5.8,5.8,53,0.00,BKN,,7.20,WeatherDisplay:10.37,2013-11-01 21:29:00,
2013-11-01 17:34:00,63.0,45.1,29.71,WSW,257,4.0,4.0,52,0.00,BKN,,7.20,WeatherDisplay:10.37,2013-11-01 21:34:00,
2013-11-01 17:39:00,63.6,45.1,29.71,WSW,239,7.0,7.0,51,0.00,BKN,,7.20,WeatherDisplay:10.37,2013-11-01 21:39:00,
2013-11-01 17:44:00,63.7,45.2,29.71,WSW,247,6.0,6.0,51,0.00,BKN,,7.20,WeatherDisplay:10.37,2013-11-01 21:44:00,
2013-11-01 17:49:00,63.5,45.6,29.71,WSW,243,7.0,7.0,52,0.00,BKN,,7.20,WeatherDisplay:10.37,2013-11-01 21:49:00,
2013-11-01 17:54:00,62.7,44.8,29.71,WSW,241,8.0,8.0,52,0.00,BKN,,7.20,WeatherDisplay:10.37,2013-11-01 21:54:00,
2013-11-01 17:59:00,62.1,44.8,29.71,WSW,241,3.5,3.5,53,0.00,BKN,,7.20,WeatherDisplay:10.37,2013-11-01 21:59:00,
2013-11-01 18:04:00,61.6,44.8,29.71,WSW,238,4.6,4.6,54,0.00,SCT,,7.20,WeatherDisplay:10.37,2013-11-01 22:04:00,
2013-11-01 18:09:00,61.3,45.0,29.71,SW,236,4.6,4.6,55,0.00,SCT,,7.20,WeatherDisplay:10.37,2013-11-01 22:09:00,
2013-11-01 18:14:00,61.0,44.7,29.71,SW,236,3.5,3.5,55,0.00,SCT,,7.20,WeatherDisplay:10.37,2013-11-01 22:14:00,
2013-11-01 18:19:00,60.8,44.5,29.71,SW,236,2.3,2.3,55,0.00,SCT,,7.20,WeatherDisplay:10.37,2013-11-01 22:19:00,
2013-11-01 18:24:00,60.6,44.8,29.71,SW,236,2.3,2.3,56,0.00,SCT,,7.20,WeatherDisplay:10.37,2013-11-01 22:24:00,
2013-11-01 18:29:00,60.5,44.7,29.71,SW,236,3.0,3.0,56,0.00,SCT,,7.20,WeatherDisplay:10.37,2013-11-01 22:29:00,
2013-11-01 18:34:00,60.4,45.1,29.71,SW,236,3.0,3.0,57,0.00,SCT,,7.20,WeatherDisplay:10.37,2013-11-01 22:34:00,
2013-11-01 18:39:00,60.4,45.1,29.71,SW,236,3.5,3.5,57,0.00,SCT,,7.20,WeatherDisplay:10.37,2013-11-01 22:39:00,
2013-11-01 18:44:00,60.5,45.2,29.71,SW,229,3.0,3.0,57,0.00,SCT,,7.20,WeatherDisplay:10.37,2013-11-01 22:44:00,
2013-11-01 18:49:00,60.5,45.2,29.72,SW,229,4.0,4.0,57,0.00,SCT,,7.20,WeatherDisplay:10.37,2013-11-01 22:49:00,
2013-11-01 18:54:00,60.5,45.2,29.72,SW,230,1.0,0.0,57,0.00,SCT,,7.20,WeatherDisplay:10.37,2013-11-01 22:54:00,
2013-11-01 18:59:00,60.4,45.1,29.72,SW,230,2.3,0.0,57,0.00,SCT,,7.20,WeatherDisplay:10.37,2013-11-01 22:59:00,
2013-11-01 19:04:00,60.3,45.5,29.72,SW,230,4.0,4.0,58,0.00,OVC,,7.20,WeatherDisplay:10.37,2013-11-01 23:04:00,
2013-11-01 19:09:00,60.2,45.4,29.72,SW,230,1.2,1.2,58,0.00,OVC,,7.20,WeatherDisplay:10.37,2013-11-01 23:09:00,
2013-11-01 19:14:00,60.1,45.3,29.72,SW,229,1.2,1.2,58,0.00,OVC,,7.20,WeatherDisplay:10.37,2013-11-01 23:14:00,
2013-11-01 19:19:00,60.0,45.2,29.72,SW,230,1.2,1.2,58,0.00,OVC,,7.20,WeatherDisplay:10.37,2013-11-01 23:19:00,
2013-11-01 19:24:00,60.0,45.6,29.73,SW,230,2.3,2.3,59,0.00,OVC,,7.20,WeatherDisplay:10.37,2013-11-01 23:24:00,
2013-11-01 19:29:00,60.0,45.2,29.73,SW,230,4.0,4.0,58,0.00,OVC,,7.20,WeatherDisplay:10.37,2013-11-01 23:29:00,
2013-11-01 19:34:00,59.9,45.5,29.73,SW,230,3.5,3.5,59,0.00,OVC,,7.20,WeatherDisplay:10.37,2013-11-01 23:34:00,
2013-11-01 19:39:00,59.8,45.4,29.73,SW,230,4.0,4.0,59,0.00,OVC,,7.20,WeatherDisplay:10.37,2013-11-01 23:39:00,
2013-11-01 19:44:00,59.6,45.7,29.73,SW,230,1.2,1.2,60,0.00,OVC,,7.20,WeatherDisplay:10.37,2013-11-01 23:44:00,
2013-11-01 19:49:00,59.4,45.5,29.73,SW,230,3.0,3.0,60,0.00,OVC,,7.20,WeatherDisplay:10.37,2013-11-01 23:49:00,
2013-11-01 19:54:00,59.2,45.3,29.73,SW,230,3.5,3.5,60,0.00,OVC,,7.20,WeatherDisplay:10.37,2013-11-01 23:54:00,
2013-11-01 19:59:00,59.0,45.6,29.73,SW,230,3.5,3.5,61,0.00,OVC,,7.20,WeatherDisplay:10.37,2013-11-01 23:59:00,
2013-11-01 20:04:00,59.0,45.6,29.73,SW,230,3.5,3.5,61,0.00,OVC,,7.20,WeatherDisplay:10.37,2013-11-02 00:04:00,
2013-11-01 20:09:00,59.0,45.6,29.73,SW,230,2.3,2.3,61,0.00,OVC,,7.20,WeatherDisplay:10.37,2013-11-02 00:09:00,
2013-11-01 20:14:00,59.0,45.6,29.74,SW,230,2.3,2.3,61,0.00,OVC,,7.20,WeatherDisplay:10.37,2013-11-02 00:14:00,
2013-11-01 20:19:00,59.0,45.6,29.74,SW,230,1.2,1.2,61,0.00,OVC,,7.20,WeatherDisplay:10.37,2013-11-02 00:19:00,
2013-11-01 20:24:00,59.0,46.0,29.74,SW,230,0.0,0.0,62,0.00,OVC,,7.20,WeatherDisplay:10.37,2013-11-02 00:24:00,
2013-11-01 20:29:00,58.9,45.9,29.74,SW,230,2.0,2.0,62,0.00,OVC,,7.20,WeatherDisplay:10.37,2013-11-02 00:29:00,
2013-11-01 20:34:00,58.6,45.6,29.74,SW,230,2.3,2.3,62,0.00,OVC,,7.20,WeatherDisplay:10.37,2013-11-02 00:34:00,
2013-11-01 20:39:00,58.5,45.5,29.74,SW,230,4.0,4.0,62,0.00,OVC,,7.20,WeatherDisplay:10.37,2013-11-02 00:39:00,
2013-11-01 20:44:00,58.5,45.5,29.74,SW,230,4.6,4.6,62,0.00,OVC,,7.20,WeatherDisplay:10.37,2013-11-02 00:44:00,
2013-11-01 20:49:00,58.6,45.6,29.74,SW,230,2.0,2.0,62,0.00,OVC,,7.20,WeatherDisplay:10.37,2013-11-02 00:49:00,
2013-11-01 20:54:00,58.7,45.7,29.74,SW,230,3.5,3.5,62,0.00,OVC,,7.20,WeatherDisplay:10.37,2013-11-02 00:54:00,
2013-11-01 20:59:00,58.7,45.3,29.74,SW,230,5.0,5.0,61,0.00,OVC,,7.20,WeatherDisplay:10.37,2013-11-02 00:59:00,
2013-11-01 21:04:00,58.7,45.3,29.74,SW,230,3.5,3.5,61,0.00,OVC,,7.20,WeatherDisplay:10.37,2013-11-02 01:04:00,
2013-11-01 21:09:00,58.7,45.3,29.74,SW,230,2.3,2.3,61,0.00,OVC,,7.20,WeatherDisplay:10.37,2013-11-02 01:09:00,
2013-11-01 21:14:00,58.6,45.2,29.74,SW,230,4.0,4.0,61,0.00,OVC,,7.20,WeatherDisplay:10.37,2013-11-02 01:14:00,
2013-11-01 21:19:00,58.4,45.4,29.74,SW,230,5.0,5.0,62,0.00,OVC,,7.20,WeatherDisplay:10.37,2013-11-02 01:19:00,
2013-11-01 21:24:00,58.3,45.3,29.74,SW,230,4.6,4.6,62,0.00,OVC,,7.20,WeatherDisplay:10.37,2013-11-02 01:24:00,
2013-11-01 21:29:00,58.2,45.2,29.75,SW,230,6.0,6.0,62,0.00,OVC,,7.20,WeatherDisplay:10.37,2013-11-02 01:29:00,
2013-11-01 21:34:00,58.0,45.0,29.75,SW,230,4.0,4.0,62,0.00,OVC,,7.20,WeatherDisplay:10.37,2013-11-02 01:34:00,
2013-11-01 21:39:00,57.8,45.3,29.75,SW,230,2.0,2.0,63,0.00,OVC,,7.20,WeatherDisplay:10.37,2013-11-02 01:39:00,
2013-11-01 21:44:00,57.5,45.0,29.75,SW,230,6.0,6.0,63,0.00,OVC,,7.20,WeatherDisplay:10.37,2013-11-02 01:44:00,
2013-11-01 21:49:00,57.3,45.2,29.75,WSW,254,5.0,5.0,64,0.00,OVC,,7.20,WeatherDisplay:10.37,2013-11-02 01:49:00,
2013-11-01 21:54:00,57.1,45.0,29.75,WSW,252,4.0,4.0,64,0.00,OVC,,7.20,WeatherDisplay:10.37,2013-11-02 01:54:00,
2013-11-01 21:59:00,57.0,45.3,29.75,WSW,252,3.5,3.5,65,0.00,OVC,,7.20,WeatherDisplay:10.37,2013-11-02 01:59:00,
2013-11-01 22:04:00,56.9,45.3,29.76,WSW,252,3.5,3.5,65,0.00,BKN,,7.20,WeatherDisplay:10.37,2013-11-02 02:04:00,
2013-11-01 22:09:00,56.7,45.5,29.76,WSW,255,4.0,4.0,66,0.00,BKN,,7.20,WeatherDisplay:10.37,2013-11-02 02:09:00,
2013-11-01 22:14:00,56.6,45.4,29.76,WSW,255,3.5,3.5,66,0.00,BKN,,7.20,WeatherDisplay:10.37,2013-11-02 02:14:00,
2013-11-01 22:19:00,56.5,45.7,29.77,WSW,255,3.5,3.5,67,0.00,BKN,,7.20,WeatherDisplay:10.37,2013-11-02 02:19:00,
2013-11-01 22:24:00,56.4,45.6,29.77,West,259,3.5,3.5,67,0.00,BKN,,7.20,WeatherDisplay:10.37,2013-11-02 02:24:00,
2013-11-01 22:29:00,56.2,45.4,29.77,West,259,2.3,2.3,67,0.00,BKN,,7.20,WeatherDisplay:10.37,2013-11-02 02:29:00,
2013-11-01 22:34:00,56.2,45.4,29.78,West,259,2.3,2.3,67,0.00,BKN,,7.20,WeatherDisplay:10.37,2013-11-02 02:34:00,
2013-11-01 22:39:00,56.2,45.4,29.78,West,259,2.0,2.0,67,0.00,BKN,,7.20,WeatherDisplay:10.37,2013-11-02 02:39:00,
2013-11-01 22:44:00,56.0,45.2,29.78,West,259,3.5,3.5,67,0.00,BKN,,7.20,WeatherDisplay:10.37,2013-11-02 02:44:00,
2013-11-01 22:49:00,56.0,45.2,29.78,West,264,8.1,8.1,67,0.00,BKN,,7.20,WeatherDisplay:10.37,2013-11-02 02:49:00,
2013-11-01 22:54:00,56.0,44.8,29.78,West,270,5.0,5.0,66,0.00,BKN,,7.20,WeatherDisplay:10.37,2013-11-02 02:54:00,
2013-11-01 22:59:00,55.8,44.6,29.78,West,270,4.0,4.0,66,0.00,BKN,,7.20,WeatherDisplay:10.37,2013-11-02 02:59:00,
2013-11-01 23:04:00,55.7,44.9,29.79,West,272,4.0,4.0,67,0.00,BKN,,7.20,WeatherDisplay:10.37,2013-11-02 03:04:00,
2013-11-01 23:09:00,55.4,44.6,29.79,West,272,5.8,5.8,67,0.00,BKN,,7.20,WeatherDisplay:10.37,2013-11-02 03:09:00,
2013-11-01 23:14:00,55.3,44.5,29.79,West,272,4.0,4.0,67,0.00,BKN,,7.20,WeatherDisplay:10.37,2013-11-02 03:14:00,
2013-11-01 23:19:00,55.1,44.3,29.79,West,272,3.0,3.0,67,0.00,BKN,,7.20,WeatherDisplay:10.37,2013-11-02 03:19:00,
2013-11-01 23:24:00,54.8,44.4,29.80,West,272,2.3,2.3,68,0.00,BKN,,7.20,WeatherDisplay:10.37,2013-11-02 03:24:00,
2013-11-01 23:29:00,54.4,44.1,29.80,West,272,1.2,0.0,68,0.00,BKN,,7.20,WeatherDisplay:10.37,2013-11-02 03:29:00,
2013-11-01 23:34:00,54.1,44.2,29.80,West,272,0.0,0.0,69,0.00,BKN,,7.20,WeatherDisplay:10.37,2013-11-02 03:34:00,
2013-11-01 23:39:00,53.7,43.8,29.80,West,272,0.0,0.0,69,0.00,BKN,,7.20,WeatherDisplay:10.37,2013-11-02 03:39:00,
2013-11-01 23:44:00,53.3,43.8,29.80,West,272,0.0,0.0,70,0.00,BKN,,7.20,WeatherDisplay:10.37,2013-11-02 03:44:00,
2013-11-01 23:49:00,53.1,43.9,29.80,West,272,0.0,0.0,71,0.00,BKN,,7.20,WeatherDisplay:10.37,2013-11-02 03:49:00,
2013-11-01 23:54:00,52.9,43.7,29.80,West,272,0.0,0.0,71,0.00,BKN,,7.20,WeatherDisplay:10.37,2013-11-02 03:54:00,
2013-11-01 23:59:00,52.7,43.9,29.80,West,272,0.0,0.0,72,0.00,BKN,,7.20,WeatherDisplay:10.37,2013-11-02 03:59:00,